sensor_id;sensor_type;location;lat;lon;timestamp;P1;durP1;ratioP1;P2;durP2;ratioP2
9775;SDS011;4927;52.472;13.108;2022-07-04T00:00:01;4.80;;;3.03;;
9775;SDS011;4927;52.472;13.108;2022-07-04T00:05:08;2.70;;;2.50;;
9775;SDS011;4927;52.472;13.108;2022-07-04T00:10:16;2.42;;;2.33;;
9775;SDS011;4927;52.472;13.108;2022-07-04T00:15:21;4.50;;;2.55;;
9775;SDS011;4927;52.472;13.108;2022-07-04T00:20:27;2.67;;;2.58;;
9775;SDS011;4927;52.472;13.108;2022-07-04T00:25:33;2.80;;;2.60;;
9775;SDS011;4927;52.472;13.108;2022-07-04T00:30:40;2.60;;;2.40;;
9775;SDS011;4927;52.472;13.108;2022-07-04T00:35:46;2.45;;;2.35;;
9775;SDS011;4927;52.472;13.108;2022-07-04T00:40:50;2.60;;;2.50;;
9775;SDS011;4927;52.472;13.108;2022-07-04T00:45:57;3.30;;;2.65;;
9775;SDS011;4927;52.472;13.108;2022-07-04T00:51:02;2.80;;;2.60;;
9775;SDS011;4927;52.472;13.108;2022-07-04T00:56:09;2.80;;;2.70;;
9775;SDS011;4927;52.472;13.108;2022-07-04T01:01:15;2.97;;;2.60;;
9775;SDS011;4927;52.472;13.108;2022-07-04T01:06:21;3.22;;;3.03;;
9775;SDS011;4927;52.472;13.108;2022-07-04T01:11:28;2.90;;;2.80;;
9775;SDS011;4927;52.472;13.108;2022-07-04T01:16:34;3.70;;;3.10;;
9775;SDS011;4927;52.472;13.108;2022-07-04T01:21:40;3.70;;;3.60;;
9775;SDS011;4927;52.472;13.108;2022-07-04T01:26:46;4.75;;;4.50;;
9775;SDS011;4927;52.472;13.108;2022-07-04T01:31:53;4.30;;;4.20;;
9775;SDS011;4927;52.472;13.108;2022-07-04T01:36:59;4.75;;;4.35;;
9775;SDS011;4927;52.472;13.108;2022-07-04T01:42:06;4.60;;;4.40;;
9775;SDS011;4927;52.472;13.108;2022-07-04T01:47:12;5.00;;;4.80;;
9775;SDS011;4927;52.472;13.108;2022-07-04T01:52:18;5.32;;;5.03;;
9775;SDS011;4927;52.472;13.108;2022-07-04T01:57:25;6.00;;;5.60;;
9775;SDS011;4927;52.472;13.108;2022-07-04T02:02:35;5.20;;;5.10;;
9775;SDS011;4927;52.472;13.108;2022-07-04T02:07:42;5.70;;;5.60;;
9775;SDS011;4927;52.472;13.108;2022-07-04T02:12:48;7.90;;;5.60;;
9775;SDS011;4927;52.472;13.108;2022-07-04T02:17:59;7.10;;;6.70;;
9775;SDS011;4927;52.472;13.108;2022-07-04T02:23:04;6.68;;;6.20;;
9775;SDS011;4927;52.472;13.108;2022-07-04T02:28:10;6.43;;;6.22;;
9775;SDS011;4927;52.472;13.108;2022-07-04T02:33:16;6.43;;;6.03;;
9775;SDS011;4927;52.472;13.108;2022-07-04T02:38:22;6.93;;;6.60;;
9775;SDS011;4927;52.472;13.108;2022-07-04T02:43:29;6.80;;;6.50;;
9775;SDS011;4927;52.472;13.108;2022-07-04T02:48:35;7.10;;;6.80;;
9775;SDS011;4927;52.472;13.108;2022-07-04T02:53:41;7.43;;;7.03;;
9775;SDS011;4927;52.472;13.108;2022-07-04T02:58:47;7.03;;;6.62;;
9775;SDS011;4927;52.472;13.108;2022-07-04T03:03:52;7.50;;;7.25;;
9775;SDS011;4927;52.472;13.108;2022-07-04T03:08:58;7.97;;;7.57;;
9775;SDS011;4927;52.472;13.108;2022-07-04T03:14:04;7.62;;;7.43;;
9775;SDS011;4927;52.472;13.108;2022-07-04T03:19:11;7.30;;;7.00;;
9775;SDS011;4927;52.472;13.108;2022-07-04T03:24:18;9.07;;;8.38;;
9775;SDS011;4927;52.472;13.108;2022-07-04T03:29:24;7.80;;;7.40;;
9775;SDS011;4927;52.472;13.108;2022-07-04T03:34:30;8.27;;;7.80;;
9775;SDS011;4927;52.472;13.108;2022-07-04T03:39:37;8.13;;;7.80;;
9775;SDS011;4927;52.472;13.108;2022-07-04T03:44:41;8.13;;;7.60;;
9775;SDS011;4927;52.472;13.108;2022-07-04T03:49:47;9.20;;;8.50;;
9775;SDS011;4927;52.472;13.108;2022-07-04T03:54:54;6.95;;;6.65;;
9775;SDS011;4927;52.472;13.108;2022-07-04T04:00:00;7.05;;;6.65;;
9775;SDS011;4927;52.472;13.108;2022-07-04T04:05:06;6.65;;;6.35;;
9775;SDS011;4927;52.472;13.108;2022-07-04T04:10:19;6.33;;;5.90;;
9775;SDS011;4927;52.472;13.108;2022-07-04T04:15:25;5.80;;;5.47;;
9775;SDS011;4927;52.472;13.108;2022-07-04T04:20:32;5.72;;;5.43;;
9775;SDS011;4927;52.472;13.108;2022-07-04T04:25:38;5.60;;;5.30;;
9775;SDS011;4927;52.472;13.108;2022-07-04T04:30:45;6.00;;;5.70;;
9775;SDS011;4927;52.472;13.108;2022-07-04T04:35:51;5.30;;;4.90;;
9775;SDS011;4927;52.472;13.108;2022-07-04T04:40:55;5.05;;;4.85;;
9775;SDS011;4927;52.472;13.108;2022-07-04T04:46:02;4.80;;;4.50;;
9775;SDS011;4927;52.472;13.108;2022-07-04T04:51:08;4.10;;;3.90;;
9775;SDS011;4927;52.472;13.108;2022-07-04T04:56:14;4.10;;;4.00;;
9775;SDS011;4927;52.472;13.108;2022-07-04T05:01:21;3.62;;;3.37;;
9775;SDS011;4927;52.472;13.108;2022-07-04T05:06:25;3.50;;;3.40;;
9775;SDS011;4927;52.472;13.108;2022-07-04T05:11:31;3.30;;;3.20;;
9775;SDS011;4927;52.472;13.108;2022-07-04T05:16:38;3.50;;;3.30;;
9775;SDS011;4927;52.472;13.108;2022-07-04T05:21:44;3.40;;;3.20;;
9775;SDS011;4927;52.472;13.108;2022-07-04T05:26:55;4.78;;;3.10;;
9775;SDS011;4927;52.472;13.108;2022-07-04T05:32:01;3.90;;;3.10;;
9775;SDS011;4927;52.472;13.108;2022-07-04T05:37:07;2.80;;;2.70;;
9775;SDS011;4927;52.472;13.108;2022-07-04T05:42:14;2.87;;;2.67;;
9775;SDS011;4927;52.472;13.108;2022-07-04T05:47:20;2.42;;;2.33;;
9775;SDS011;4927;52.472;13.108;2022-07-04T05:52:26;2.20;;;2.10;;
9775;SDS011;4927;52.472;13.108;2022-07-04T05:57:33;2.10;;;2.00;;
9775;SDS011;4927;52.472;13.108;2022-07-04T06:02:40;1.83;;;1.80;;
9775;SDS011;4927;52.472;13.108;2022-07-04T06:07:46;2.33;;;1.90;;
9775;SDS011;4927;52.472;13.108;2022-07-04T06:12:52;2.75;;;1.85;;
9775;SDS011;4927;52.472;13.108;2022-07-04T06:17:57;2.15;;;1.92;;
9775;SDS011;4927;52.472;13.108;2022-07-04T06:23:03;2.50;;;1.90;;
9775;SDS011;4927;52.472;13.108;2022-07-04T06:28:09;1.50;;;1.40;;
9775;SDS011;4927;52.472;13.108;2022-07-04T06:33:15;1.70;;;1.60;;
9775;SDS011;4927;52.472;13.108;2022-07-04T06:38:23;2.60;;;2.10;;
9775;SDS011;4927;52.472;13.108;2022-07-04T06:43:31;1.77;;;1.67;;
9775;SDS011;4927;52.472;13.108;2022-07-04T06:48:37;1.80;;;1.70;;
9775;SDS011;4927;52.472;13.108;2022-07-04T06:53:44;2.10;;;2.00;;
9775;SDS011;4927;52.472;13.108;2022-07-04T06:58:51;2.80;;;2.00;;
9775;SDS011;4927;52.472;13.108;2022-07-04T07:03:57;2.70;;;2.50;;
9775;SDS011;4927;52.472;13.108;2022-07-04T07:09:03;1.80;;;1.80;;
9775;SDS011;4927;52.472;13.108;2022-07-04T07:14:09;1.70;;;1.60;;
9775;SDS011;4927;52.472;13.108;2022-07-04T07:19:16;1.50;;;1.50;;
9775;SDS011;4927;52.472;13.108;2022-07-04T07:24:22;1.50;;;1.40;;
9775;SDS011;4927;52.472;13.108;2022-07-04T07:29:28;3.00;;;1.50;;
9775;SDS011;4927;52.472;13.108;2022-07-04T07:34:35;1.40;;;1.30;;
9775;SDS011;4927;52.472;13.108;2022-07-04T07:39:41;1.80;;;1.20;;
9775;SDS011;4927;52.472;13.108;2022-07-04T07:44:47;1.10;;;1.00;;
9775;SDS011;4927;52.472;13.108;2022-07-04T07:49:53;3.00;;;1.05;;
9775;SDS011;4927;52.472;13.108;2022-07-04T07:55:00;2.22;;;0.90;;
9775;SDS011;4927;52.472;13.108;2022-07-04T08:00:06;1.17;;;1.08;;
9775;SDS011;4927;52.472;13.108;2022-07-04T08:05:13;1.98;;;1.20;;
9775;SDS011;4927;52.472;13.108;2022-07-04T08:10:20;2.30;;;1.30;;
9775;SDS011;4927;52.472;13.108;2022-07-04T08:15:26;2.05;;;1.30;;
9775;SDS011;4927;52.472;13.108;2022-07-04T08:20:37;2.03;;;1.10;;
9775;SDS011;4927;52.472;13.108;2022-07-04T08:25:43;1.30;;;1.20;;
9775;SDS011;4927;52.472;13.108;2022-07-04T08:30:49;1.70;;;1.30;;
9775;SDS011;4927;52.472;13.108;2022-07-04T08:35:55;3.85;;;1.17;;
9775;SDS011;4927;52.472;13.108;2022-07-04T08:41:02;1.20;;;1.20;;
9775;SDS011;4927;52.472;13.108;2022-07-04T08:46:09;2.80;;;1.30;;
9775;SDS011;4927;52.472;13.108;2022-07-04T08:51:16;1.30;;;1.20;;
9775;SDS011;4927;52.472;13.108;2022-07-04T08:56:21;1.90;;;1.20;;
9775;SDS011;4927;52.472;13.108;2022-07-04T09:01:34;1.62;;;1.12;;
9775;SDS011;4927;52.472;13.108;2022-07-04T09:06:40;2.60;;;1.10;;
9775;SDS011;4927;52.472;13.108;2022-07-04T09:13:03;5.70;;;1.67;;
9775;SDS011;4927;52.472;13.108;2022-07-04T09:23:30;1.45;;;1.10;;
9775;SDS011;4927;52.472;13.108;2022-07-04T09:28:37;1.20;;;1.20;;
9775;SDS011;4927;52.472;13.108;2022-07-04T09:33:44;1.00;;;1.00;;
9775;SDS011;4927;52.472;13.108;2022-07-04T09:44:25;2.17;;;1.40;;
9775;SDS011;4927;52.472;13.108;2022-07-04T09:49:31;1.00;;;1.00;;
9775;SDS011;4927;52.472;13.108;2022-07-04T09:54:37;1.30;;;1.20;;
9775;SDS011;4927;52.472;13.108;2022-07-04T09:59:43;2.00;;;1.00;;
9775;SDS011;4927;52.472;13.108;2022-07-04T10:04:50;3.62;;;1.17;;
9775;SDS011;4927;52.472;13.108;2022-07-04T10:09:56;1.20;;;1.10;;
9775;SDS011;4927;52.472;13.108;2022-07-04T10:15:02;1.20;;;1.10;;
9775;SDS011;4927;52.472;13.108;2022-07-04T10:20:10;1.92;;;1.60;;
9775;SDS011;4927;52.472;13.108;2022-07-04T10:25:17;1.10;;;1.00;;
9775;SDS011;4927;52.472;13.108;2022-07-04T10:30:24;0.98;;;0.98;;
9775;SDS011;4927;52.472;13.108;2022-07-04T10:40:50;3.10;;;1.10;;
9775;SDS011;4927;52.472;13.108;2022-07-04T10:46:19;4.20;;;1.37;;
9775;SDS011;4927;52.472;13.108;2022-07-04T10:51:31;2.15;;;0.80;;
9775;SDS011;4927;52.472;13.108;2022-07-04T10:56:37;1.00;;;0.90;;
9775;SDS011;4927;52.472;13.108;2022-07-04T11:01:46;2.28;;;0.90;;
9775;SDS011;4927;52.472;13.108;2022-07-04T11:06:49;1.30;;;1.10;;
9775;SDS011;4927;52.472;13.108;2022-07-04T11:12:00;1.10;;;1.00;;
9775;SDS011;4927;52.472;13.108;2022-07-04T11:17:12;1.40;;;1.10;;
9775;SDS011;4927;52.472;13.108;2022-07-04T11:22:21;1.60;;;1.17;;
9775;SDS011;4927;52.472;13.108;2022-07-04T11:27:27;0.90;;;0.90;;
9775;SDS011;4927;52.472;13.108;2022-07-04T11:32:34;1.80;;;1.00;;
9775;SDS011;4927;52.472;13.108;2022-07-04T11:37:42;1.20;;;1.10;;
9775;SDS011;4927;52.472;13.108;2022-07-04T11:48:19;1.10;;;1.00;;
9775;SDS011;4927;52.472;13.108;2022-07-04T11:53:18;1.10;;;1.00;;
9775;SDS011;4927;52.472;13.108;2022-07-04T11:58:24;1.20;;;1.00;;
9775;SDS011;4927;52.472;13.108;2022-07-04T12:03:32;1.30;;;1.20;;
9775;SDS011;4927;52.472;13.108;2022-07-04T12:08:37;1.10;;;1.00;;
9775;SDS011;4927;52.472;13.108;2022-07-04T12:13:42;1.90;;;0.90;;
9775;SDS011;4927;52.472;13.108;2022-07-04T12:18:48;1.10;;;0.90;;
9775;SDS011;4927;52.472;13.108;2022-07-04T12:23:55;1.07;;;1.00;;
9775;SDS011;4927;52.472;13.108;2022-07-04T12:29:02;2.33;;;1.00;;
9775;SDS011;4927;52.472;13.108;2022-07-04T12:34:15;0.90;;;0.90;;
9775;SDS011;4927;52.472;13.108;2022-07-04T12:44:37;1.90;;;0.90;;
9775;SDS011;4927;52.472;13.108;2022-07-04T12:49:44;1.90;;;0.80;;
9775;SDS011;4927;52.472;13.108;2022-07-04T13:00:08;0.80;;;0.80;;
9775;SDS011;4927;52.472;13.108;2022-07-04T13:05:15;0.80;;;0.80;;
9775;SDS011;4927;52.472;13.108;2022-07-04T13:10:22;2.60;;;0.83;;
9775;SDS011;4927;52.472;13.108;2022-07-04T13:15:29;2.00;;;1.00;;
9775;SDS011;4927;52.472;13.108;2022-07-04T13:20:35;2.90;;;0.90;;
9775;SDS011;4927;52.472;13.108;2022-07-04T13:25:41;2.50;;;1.00;;
9775;SDS011;4927;52.472;13.108;2022-07-04T13:30:48;1.20;;;1.10;;
9775;SDS011;4927;52.472;13.108;2022-07-04T13:35:54;1.00;;;0.90;;
9775;SDS011;4927;52.472;13.108;2022-07-04T13:41:01;1.10;;;1.00;;
9775;SDS011;4927;52.472;13.108;2022-07-04T13:46:08;1.23;;;1.00;;
9775;SDS011;4927;52.472;13.108;2022-07-04T13:51:14;1.10;;;0.90;;
9775;SDS011;4927;52.472;13.108;2022-07-04T13:56:20;2.17;;;1.00;;
9775;SDS011;4927;52.472;13.108;2022-07-04T14:01:27;10.40;;;0.90;;
9775;SDS011;4927;52.472;13.108;2022-07-04T14:06:32;1.20;;;1.10;;
9775;SDS011;4927;52.472;13.108;2022-07-04T14:11:38;3.13;;;1.40;;
9775;SDS011;4927;52.472;13.108;2022-07-04T14:16:44;1.10;;;1.00;;
9775;SDS011;4927;52.472;13.108;2022-07-04T14:21:51;1.80;;;1.70;;
9775;SDS011;4927;52.472;13.108;2022-07-04T14:26:57;1.20;;;0.90;;
9775;SDS011;4927;52.472;13.108;2022-07-04T14:32:04;1.70;;;1.03;;
9775;SDS011;4927;52.472;13.108;2022-07-04T14:37:11;1.33;;;1.23;;
9775;SDS011;4927;52.472;13.108;2022-07-04T14:42:15;5.20;;;1.20;;
9775;SDS011;4927;52.472;13.108;2022-07-04T14:47:22;1.90;;;1.30;;
9775;SDS011;4927;52.472;13.108;2022-07-04T14:52:26;1.90;;;1.20;;
9775;SDS011;4927;52.472;13.108;2022-07-04T14:57:32;2.20;;;1.40;;
9775;SDS011;4927;52.472;13.108;2022-07-04T15:02:36;1.00;;;0.90;;
9775;SDS011;4927;52.472;13.108;2022-07-04T15:07:43;12.80;;;2.50;;
9775;SDS011;4927;52.472;13.108;2022-07-04T15:12:50;0.90;;;0.90;;
9775;SDS011;4927;52.472;13.108;2022-07-04T15:17:56;1.08;;;1.00;;
9775;SDS011;4927;52.472;13.108;2022-07-04T15:23:03;4.30;;;1.10;;
9775;SDS011;4927;52.472;13.108;2022-07-04T15:28:13;0.97;;;0.97;;
9775;SDS011;4927;52.472;13.108;2022-07-04T15:33:19;1.00;;;1.00;;
9775;SDS011;4927;52.472;13.108;2022-07-04T15:38:26;1.90;;;1.80;;
9775;SDS011;4927;52.472;13.108;2022-07-04T15:43:33;1.23;;;1.23;;
9775;SDS011;4927;52.472;13.108;2022-07-04T15:48:39;1.20;;;1.05;;
9775;SDS011;4927;52.472;13.108;2022-07-04T15:53:46;2.40;;;1.20;;
9775;SDS011;4927;52.472;13.108;2022-07-04T15:58:52;1.30;;;1.20;;
9775;SDS011;4927;52.472;13.108;2022-07-04T16:03:58;1.42;;;1.33;;
9775;SDS011;4927;52.472;13.108;2022-07-04T16:09:05;2.37;;;2.08;;
9775;SDS011;4927;52.472;13.108;2022-07-04T16:14:11;1.15;;;1.02;;
9775;SDS011;4927;52.472;13.108;2022-07-04T16:19:16;1.35;;;1.35;;
9775;SDS011;4927;52.472;13.108;2022-07-04T16:24:23;1.10;;;1.00;;
9775;SDS011;4927;52.472;13.108;2022-07-04T16:29:29;1.10;;;1.00;;
9775;SDS011;4927;52.472;13.108;2022-07-04T16:34:35;1.30;;;0.90;;
9775;SDS011;4927;52.472;13.108;2022-07-04T16:39:42;2.50;;;0.95;;
9775;SDS011;4927;52.472;13.108;2022-07-04T16:44:52;2.00;;;1.10;;
9775;SDS011;4927;52.472;13.108;2022-07-04T16:49:59;0.90;;;0.90;;
9775;SDS011;4927;52.472;13.108;2022-07-04T16:55:05;1.20;;;1.10;;
9775;SDS011;4927;52.472;13.108;2022-07-04T17:00:13;1.08;;;1.02;;
9775;SDS011;4927;52.472;13.108;2022-07-04T17:05:18;0.90;;;0.90;;
9775;SDS011;4927;52.472;13.108;2022-07-04T17:10:24;1.30;;;1.20;;
9775;SDS011;4927;52.472;13.108;2022-07-04T17:15:31;1.80;;;1.70;;
9775;SDS011;4927;52.472;13.108;2022-07-04T17:20:37;2.00;;;1.17;;
9775;SDS011;4927;52.472;13.108;2022-07-04T17:25:44;1.00;;;1.00;;
9775;SDS011;4927;52.472;13.108;2022-07-04T17:30:50;0.80;;;0.80;;
9775;SDS011;4927;52.472;13.108;2022-07-04T17:35:56;1.30;;;1.20;;
9775;SDS011;4927;52.472;13.108;2022-07-04T17:41:03;3.10;;;2.80;;
9775;SDS011;4927;52.472;13.108;2022-07-04T17:46:16;7.20;;;6.70;;
9775;SDS011;4927;52.472;13.108;2022-07-04T17:51:23;0.90;;;0.90;;
9775;SDS011;4927;52.472;13.108;2022-07-04T17:56:29;1.50;;;1.40;;
9775;SDS011;4927;52.472;13.108;2022-07-04T18:01:36;2.80;;;1.50;;
9775;SDS011;4927;52.472;13.108;2022-07-04T18:06:42;1.50;;;1.50;;
9775;SDS011;4927;52.472;13.108;2022-07-04T18:11:48;1.50;;;0.95;;
9775;SDS011;4927;52.472;13.108;2022-07-04T18:16:54;2.28;;;2.17;;
9775;SDS011;4927;52.472;13.108;2022-07-04T18:22:01;3.25;;;3.10;;
9775;SDS011;4927;52.472;13.108;2022-07-04T18:27:06;1.30;;;1.00;;
9775;SDS011;4927;52.472;13.108;2022-07-04T18:32:13;1.67;;;1.58;;
9775;SDS011;4927;52.472;13.108;2022-07-04T18:37:17;2.33;;;1.50;;
9775;SDS011;4927;52.472;13.108;2022-07-04T18:42:23;1.50;;;1.40;;
9775;SDS011;4927;52.472;13.108;2022-07-04T18:47:36;2.67;;;2.58;;
9775;SDS011;4927;52.472;13.108;2022-07-04T18:52:43;8.45;;;6.50;;
9775;SDS011;4927;52.472;13.108;2022-07-04T18:57:49;1.23;;;1.23;;
9775;SDS011;4927;52.472;13.108;2022-07-04T19:02:55;1.20;;;1.20;;
9775;SDS011;4927;52.472;13.108;2022-07-04T19:08:02;1.80;;;1.30;;
9775;SDS011;4927;52.472;13.108;2022-07-04T19:13:09;2.40;;;1.15;;
9775;SDS011;4927;52.472;13.108;2022-07-04T19:18:15;2.70;;;1.40;;
9775;SDS011;4927;52.472;13.108;2022-07-04T19:25:40;3.23;;;1.30;;
9775;SDS011;4927;52.472;13.108;2022-07-04T19:30:47;3.50;;;1.60;;
9775;SDS011;4927;52.472;13.108;2022-07-04T19:35:53;1.50;;;1.40;;
9775;SDS011;4927;52.472;13.108;2022-07-04T19:40:59;1.67;;;1.42;;
9775;SDS011;4927;52.472;13.108;2022-07-04T19:46:06;2.10;;;1.50;;
9775;SDS011;4927;52.472;13.108;2022-07-04T19:51:12;1.50;;;1.50;;
9775;SDS011;4927;52.472;13.108;2022-07-04T19:56:16;1.73;;;1.62;;
9775;SDS011;4927;52.472;13.108;2022-07-04T20:01:23;1.70;;;1.60;;
9775;SDS011;4927;52.472;13.108;2022-07-04T20:07:08;1.43;;;1.43;;
9775;SDS011;4927;52.472;13.108;2022-07-04T20:12:13;2.00;;;1.70;;
9775;SDS011;4927;52.472;13.108;2022-07-04T20:17:20;1.52;;;1.48;;
9775;SDS011;4927;52.472;13.108;2022-07-04T20:22:25;1.60;;;1.30;;
9775;SDS011;4927;52.472;13.108;2022-07-04T20:27:32;1.40;;;1.40;;
9775;SDS011;4927;52.472;13.108;2022-07-04T20:32:40;1.70;;;1.55;;
9775;SDS011;4927;52.472;13.108;2022-07-04T20:37:46;1.60;;;1.50;;
9775;SDS011;4927;52.472;13.108;2022-07-04T20:42:52;1.45;;;1.40;;
9775;SDS011;4927;52.472;13.108;2022-07-04T20:47:58;1.50;;;1.50;;
9775;SDS011;4927;52.472;13.108;2022-07-04T20:53:03;1.60;;;1.30;;
9775;SDS011;4927;52.472;13.108;2022-07-04T20:58:09;1.52;;;1.48;;
9775;SDS011;4927;52.472;13.108;2022-07-04T21:03:15;1.80;;;1.60;;
9775;SDS011;4927;52.472;13.108;2022-07-04T21:08:21;1.92;;;1.80;;
9775;SDS011;4927;52.472;13.108;2022-07-04T21:13:28;3.90;;;1.60;;
9775;SDS011;4927;52.472;13.108;2022-07-04T21:18:35;1.80;;;1.70;;
9775;SDS011;4927;52.472;13.108;2022-07-04T21:23:41;1.90;;;1.80;;
9775;SDS011;4927;52.472;13.108;2022-07-04T21:28:45;1.80;;;1.70;;
9775;SDS011;4927;52.472;13.108;2022-07-04T21:33:51;1.60;;;1.50;;
9775;SDS011;4927;52.472;13.108;2022-07-04T21:38:57;1.90;;;1.80;;
9775;SDS011;4927;52.472;13.108;2022-07-04T21:44:04;2.30;;;1.70;;
9775;SDS011;4927;52.472;13.108;2022-07-04T21:49:10;1.90;;;1.80;;
9775;SDS011;4927;52.472;13.108;2022-07-04T21:54:16;1.80;;;1.70;;
9775;SDS011;4927;52.472;13.108;2022-07-04T21:59:22;1.80;;;1.70;;
9775;SDS011;4927;52.472;13.108;2022-07-04T22:04:29;1.52;;;1.52;;
9775;SDS011;4927;52.472;13.108;2022-07-04T22:09:35;1.70;;;1.60;;
9775;SDS011;4927;52.472;13.108;2022-07-04T22:14:39;1.70;;;1.70;;
9775;SDS011;4927;52.472;13.108;2022-07-04T22:19:46;3.70;;;1.80;;
9775;SDS011;4927;52.472;13.108;2022-07-04T22:24:52;1.77;;;1.67;;
9775;SDS011;4927;52.472;13.108;2022-07-04T22:29:58;2.00;;;1.90;;
9775;SDS011;4927;52.472;13.108;2022-07-04T22:35:06;2.00;;;1.70;;
9775;SDS011;4927;52.472;13.108;2022-07-04T22:40:13;1.60;;;1.40;;
9775;SDS011;4927;52.472;13.108;2022-07-04T22:45:19;1.80;;;1.80;;
9775;SDS011;4927;52.472;13.108;2022-07-04T22:50:26;1.40;;;1.40;;
9775;SDS011;4927;52.472;13.108;2022-07-04T22:55:32;1.60;;;1.50;;
9775;SDS011;4927;52.472;13.108;2022-07-04T23:00:39;1.70;;;1.60;;
9775;SDS011;4927;52.472;13.108;2022-07-04T23:05:45;1.50;;;1.50;;
9775;SDS011;4927;52.472;13.108;2022-07-04T23:10:51;1.48;;;1.40;;
9775;SDS011;4927;52.472;13.108;2022-07-04T23:16:03;1.50;;;1.50;;
9775;SDS011;4927;52.472;13.108;2022-07-04T23:21:10;1.90;;;1.80;;
9775;SDS011;4927;52.472;13.108;2022-07-04T23:26:17;2.80;;;2.28;;
9775;SDS011;4927;52.472;13.108;2022-07-04T23:31:23;2.80;;;1.70;;
9775;SDS011;4927;52.472;13.108;2022-07-04T23:36:29;1.80;;;1.70;;
9775;SDS011;4927;52.472;13.108;2022-07-04T23:41:36;1.90;;;1.80;;
9775;SDS011;4927;52.472;13.108;2022-07-04T23:46:42;1.50;;;1.45;;
9775;SDS011;4927;52.472;13.108;2022-07-04T23:51:47;1.50;;;1.50;;
9775;SDS011;4927;52.472;13.108;2022-07-04T23:56:53;2.10;;;1.70;;
